sensor_id;sensor_type;location;lat;lon;timestamp;temperature;humidity
19359;DHT22;9815;52.334;20.890;2023-04-21T00:01:02;8.60;99.90
19359;DHT22;9815;52.334;20.890;2023-04-21T00:03:34;8.60;99.90
19359;DHT22;9815;52.334;20.890;2023-04-21T00:06:04;8.50;99.90
19359;DHT22;9815;52.334;20.890;2023-04-21T00:08:32;8.50;99.90
19359;DHT22;9815;52.334;20.890;2023-04-21T00:11:05;8.40;99.90
19359;DHT22;9815;52.334;20.890;2023-04-21T00:13:33;8.40;99.90
19359;DHT22;9815;52.334;20.890;2023-04-21T00:16:02;8.30;99.90
19359;DHT22;9815;52.334;20.890;2023-04-21T00:18:30;8.20;99.90
19359;DHT22;9815;52.334;20.890;2023-04-21T00:20:58;8.20;99.90
19359;DHT22;9815;52.334;20.890;2023-04-21T00:23:26;8.20;99.90
19359;DHT22;9815;52.334;20.890;2023-04-21T00:25:54;8.20;99.90
19359;DHT22;9815;52.334;20.890;2023-04-21T00:28:23;8.10;99.90
19359;DHT22;9815;52.334;20.890;2023-04-21T00:30:51;8.00;99.90
19359;DHT22;9815;52.334;20.890;2023-04-21T00:33:21;8.00;99.90
19359;DHT22;9815;52.334;20.890;2023-04-21T00:35:49;8.00;99.90
19359;DHT22;9815;52.334;20.890;2023-04-21T00:38:17;8.00;99.90
19359;DHT22;9815;52.334;20.890;2023-04-21T00:40:45;8.00;99.90
19359;DHT22;9815;52.334;20.890;2023-04-21T00:43:13;8.00;99.90
19359;DHT22;9815;52.334;20.890;2023-04-21T00:45:44;7.90;99.90
19359;DHT22;9815;52.334;20.890;2023-04-21T00:48:12;8.00;99.90
19359;DHT22;9815;52.334;20.890;2023-04-21T00:50:40;7.90;99.90
19359;DHT22;9815;52.334;20.890;2023-04-21T00:53:08;7.90;99.90
19359;DHT22;9815;52.334;20.890;2023-04-21T00:55:37;7.80;99.90
19359;DHT22;9815;52.334;20.890;2023-04-21T00:58:05;7.90;99.90
19359;DHT22;9815;52.334;20.890;2023-04-21T01:00:33;7.80;99.90
19359;DHT22;9815;52.334;20.890;2023-04-21T01:03:05;7.70;99.90
19359;DHT22;9815;52.334;20.890;2023-04-21T01:05:33;7.70;99.90
19359;DHT22;9815;52.334;20.890;2023-04-21T01:08:02;7.70;99.90
19359;DHT22;9815;52.334;20.890;2023-04-21T01:10:31;7.60;99.90
19359;DHT22;9815;52.334;20.890;2023-04-21T01:12:59;7.50;99.90
19359;DHT22;9815;52.334;20.890;2023-04-21T01:15:27;7.50;99.90
19359;DHT22;9815;52.334;20.890;2023-04-21T01:17:57;7.50;99.90
19359;DHT22;9815;52.334;20.890;2023-04-21T01:20:27;7.40;99.90
19359;DHT22;9815;52.334;20.890;2023-04-21T01:22:58;7.40;99.90
19359;DHT22;9815;52.334;20.890;2023-04-21T01:25:26;7.30;99.90
19359;DHT22;9815;52.334;20.890;2023-04-21T01:27:55;7.30;99.90
19359;DHT22;9815;52.334;20.890;2023-04-21T01:30:23;7.30;99.90
19359;DHT22;9815;52.334;20.890;2023-04-21T01:32:51;7.20;99.90
19359;DHT22;9815;52.334;20.890;2023-04-21T01:35:19;7.20;99.90
19359;DHT22;9815;52.334;20.890;2023-04-21T01:37:47;7.20;99.90
19359;DHT22;9815;52.334;20.890;2023-04-21T01:40:19;7.10;99.90
19359;DHT22;9815;52.334;20.890;2023-04-21T01:42:47;7.10;99.90
19359;DHT22;9815;52.334;20.890;2023-04-21T01:45:15;7.10;99.90
19359;DHT22;9815;52.334;20.890;2023-04-21T01:47:43;7.00;99.90
19359;DHT22;9815;52.334;20.890;2023-04-21T01:50:12;7.10;99.90
19359;DHT22;9815;52.334;20.890;2023-04-21T01:52:41;7.00;99.90
19359;DHT22;9815;52.334;20.890;2023-04-21T01:55:09;6.90;99.90
19359;DHT22;9815;52.334;20.890;2023-04-21T01:57:40;6.90;99.90
19359;DHT22;9815;52.334;20.890;2023-04-21T02:00:09;6.90;99.90
19359;DHT22;9815;52.334;20.890;2023-04-21T02:02:40;6.90;99.90
19359;DHT22;9815;52.334;20.890;2023-04-21T02:05:11;6.80;99.90
19359;DHT22;9815;52.334;20.890;2023-04-21T02:07:40;6.70;99.90
19359;DHT22;9815;52.334;20.890;2023-04-21T02:10:09;6.70;99.90
19359;DHT22;9815;52.334;20.890;2023-04-21T02:12:37;6.70;99.90
19359;DHT22;9815;52.334;20.890;2023-04-21T02:15:07;6.60;99.90
19359;DHT22;9815;52.334;20.890;2023-04-21T02:17:35;6.60;99.90
19359;DHT22;9815;52.334;20.890;2023-04-21T02:20:05;6.50;99.90
19359;DHT22;9815;52.334;20.890;2023-04-21T02:22:33;6.60;99.90
19359;DHT22;9815;52.334;20.890;2023-04-21T02:25:02;6.50;99.90
19359;DHT22;9815;52.334;20.890;2023-04-21T02:27:30;6.40;99.90
19359;DHT22;9815;52.334;20.890;2023-04-21T02:29:58;6.30;99.90
19359;DHT22;9815;52.334;20.890;2023-04-21T02:32:28;6.30;99.90
19359;DHT22;9815;52.334;20.890;2023-04-21T02:34:56;6.20;99.90
19359;DHT22;9815;52.334;20.890;2023-04-21T02:37:24;6.20;99.90
19359;DHT22;9815;52.334;20.890;2023-04-21T02:39:52;6.20;99.90
19359;DHT22;9815;52.334;20.890;2023-04-21T02:42:20;6.10;99.90
19359;DHT22;9815;52.334;20.890;2023-04-21T02:44:48;6.10;99.90
19359;DHT22;9815;52.334;20.890;2023-04-21T02:47:16;6.20;99.90
19359;DHT22;9815;52.334;20.890;2023-04-21T02:49:46;6.10;99.90
19359;DHT22;9815;52.334;20.890;2023-04-21T02:52:14;6.10;99.90
19359;DHT22;9815;52.334;20.890;2023-04-21T02:54:42;6.00;99.90
19359;DHT22;9815;52.334;20.890;2023-04-21T02:57:10;5.90;99.90
19359;DHT22;9815;52.334;20.890;2023-04-21T02:59:38;5.90;99.90
19359;DHT22;9815;52.334;20.890;2023-04-21T03:02:07;5.80;99.90
19359;DHT22;9815;52.334;20.890;2023-04-21T03:04:37;5.80;99.90
19359;DHT22;9815;52.334;20.890;2023-04-21T03:07:10;5.70;99.90
19359;DHT22;9815;52.334;20.890;2023-04-21T03:09:39;5.70;99.90
19359;DHT22;9815;52.334;20.890;2023-04-21T03:12:07;5.70;99.90
19359;DHT22;9815;52.334;20.890;2023-04-21T03:14:35;5.80;99.90
19359;DHT22;9815;52.334;20.890;2023-04-21T03:17:03;5.70;99.90
19359;DHT22;9815;52.334;20.890;2023-04-21T03:19:31;5.60;99.90
19359;DHT22;9815;52.334;20.890;2023-04-21T03:21:59;5.60;99.90
19359;DHT22;9815;52.334;20.890;2023-04-21T03:24:29;5.60;99.90
19359;DHT22;9815;52.334;20.890;2023-04-21T03:26:58;5.50;99.90
19359;DHT22;9815;52.334;20.890;2023-04-21T03:29:26;5.50;99.90
19359;DHT22;9815;52.334;20.890;2023-04-21T03:31:54;5.50;99.90
19359;DHT22;9815;52.334;20.890;2023-04-21T03:34:23;5.50;99.90
19359;DHT22;9815;52.334;20.890;2023-04-21T03:36:52;5.50;99.90
19359;DHT22;9815;52.334;20.890;2023-04-21T03:39:20;5.40;99.90
19359;DHT22;9815;52.334;20.890;2023-04-21T03:41:51;5.40;99.90
19359;DHT22;9815;52.334;20.890;2023-04-21T03:44:20;5.40;99.90
19359;DHT22;9815;52.334;20.890;2023-04-21T03:46:50;5.40;99.90
19359;DHT22;9815;52.334;20.890;2023-04-21T03:49:21;5.30;99.90
19359;DHT22;9815;52.334;20.890;2023-04-21T03:51:49;5.30;99.90
19359;DHT22;9815;52.334;20.890;2023-04-21T03:54:17;5.30;99.90
19359;DHT22;9815;52.334;20.890;2023-04-21T03:56:45;5.30;99.90
19359;DHT22;9815;52.334;20.890;2023-04-21T03:59:14;5.30;99.90
19359;DHT22;9815;52.334;20.890;2023-04-21T04:01:42;5.40;99.90
19359;DHT22;9815;52.334;20.890;2023-04-21T04:04:10;5.40;99.90
19359;DHT22;9815;52.334;20.890;2023-04-21T04:06:39;5.40;99.90
19359;DHT22;9815;52.334;20.890;2023-04-21T04:09:07;5.40;99.90
19359;DHT22;9815;52.334;20.890;2023-04-21T04:11:35;5.40;99.90
19359;DHT22;9815;52.334;20.890;2023-04-21T04:14:03;5.50;99.90
19359;DHT22;9815;52.334;20.890;2023-04-21T04:16:34;5.50;99.90
19359;DHT22;9815;52.334;20.890;2023-04-21T04:19:02;5.50;99.90
19359;DHT22;9815;52.334;20.890;2023-04-21T04:21:30;5.60;99.90
19359;DHT22;9815;52.334;20.890;2023-04-21T04:23:59;5.60;99.90
19359;DHT22;9815;52.334;20.890;2023-04-21T04:26:28;5.70;99.90
19359;DHT22;9815;52.334;20.890;2023-04-21T04:28:55;5.80;99.90
19359;DHT22;9815;52.334;20.890;2023-04-21T04:31:26;5.80;99.90
19359;DHT22;9815;52.334;20.890;2023-04-21T04:33:56;5.90;99.90
19359;DHT22;9815;52.334;20.890;2023-04-21T04:36:24;6.00;99.90
19359;DHT22;9815;52.334;20.890;2023-04-21T04:38:54;6.10;99.90
19359;DHT22;9815;52.334;20.890;2023-04-21T04:41:22;6.20;99.90
19359;DHT22;9815;52.334;20.890;2023-04-21T04:43:50;6.40;99.90
19359;DHT22;9815;52.334;20.890;2023-04-21T04:46:19;6.50;99.90
19359;DHT22;9815;52.334;20.890;2023-04-21T04:48:47;6.70;99.90
19359;DHT22;9815;52.334;20.890;2023-04-21T04:51:16;6.90;99.90
19359;DHT22;9815;52.334;20.890;2023-04-21T04:53:44;7.00;99.90
19359;DHT22;9815;52.334;20.890;2023-04-21T04:56:12;7.20;99.90
19359;DHT22;9815;52.334;20.890;2023-04-21T04:58:40;7.30;99.90
19359;DHT22;9815;52.334;20.890;2023-04-21T05:01:11;7.40;99.90
19359;DHT22;9815;52.334;20.890;2023-04-21T05:03:40;7.50;99.90
19359;DHT22;9815;52.334;20.890;2023-04-21T05:06:08;7.70;99.90
19359;DHT22;9815;52.334;20.890;2023-04-21T05:08:38;7.80;99.90
19359;DHT22;9815;52.334;20.890;2023-04-21T05:11:07;8.20;99.90
19359;DHT22;9815;52.334;20.890;2023-04-21T05:13:35;8.30;99.90
19359;DHT22;9815;52.334;20.890;2023-04-21T05:16:06;8.50;99.90
19359;DHT22;9815;52.334;20.890;2023-04-21T05:18:35;8.60;99.90
19359;DHT22;9815;52.334;20.890;2023-04-21T05:21:04;8.70;99.90
19359;DHT22;9815;52.334;20.890;2023-04-21T05:23:32;9.00;95.60
19359;DHT22;9815;52.334;20.890;2023-04-21T05:26:01;9.20;96.80
19359;DHT22;9815;52.334;20.890;2023-04-21T05:28:30;9.40;91.50
19359;DHT22;9815;52.334;20.890;2023-04-21T05:30:59;9.50;92.10
19359;DHT22;9815;52.334;20.890;2023-04-21T05:33:27;9.60;93.70
19359;DHT22;9815;52.334;20.890;2023-04-21T05:35:57;9.70;89.80
19359;DHT22;9815;52.334;20.890;2023-04-21T05:38:25;9.90;69.80
19359;DHT22;9815;52.334;20.890;2023-04-21T05:40:54;10.20;62.40
19359;DHT22;9815;52.334;20.890;2023-04-21T05:43:23;10.30;66.20
19359;DHT22;9815;52.334;20.890;2023-04-21T05:45:51;10.50;56.50
19359;DHT22;9815;52.334;20.890;2023-04-21T05:48:19;10.60;58.70
19359;DHT22;9815;52.334;20.890;2023-04-21T05:50:47;10.70;56.10
19359;DHT22;9815;52.334;20.890;2023-04-21T05:53:16;10.80;59.60
19359;DHT22;9815;52.334;20.890;2023-04-21T05:55:44;10.90;61.60
19359;DHT22;9815;52.334;20.890;2023-04-21T05:58:11;11.00;54.10
19359;DHT22;9815;52.334;20.890;2023-04-21T06:00:41;11.10;48.00
19359;DHT22;9815;52.334;20.890;2023-04-21T06:03:09;11.20;47.80
19359;DHT22;9815;52.334;20.890;2023-04-21T06:05:37;11.30;42.80
19359;DHT22;9815;52.334;20.890;2023-04-21T06:08:05;11.40;42.40
19359;DHT22;9815;52.334;20.890;2023-04-21T06:10:33;11.40;39.80
19359;DHT22;9815;52.334;20.890;2023-04-21T06:13:01;11.60;38.20
19359;DHT22;9815;52.334;20.890;2023-04-21T06:15:29;11.60;39.30
19359;DHT22;9815;52.334;20.890;2023-04-21T06:17:59;11.80;37.60
19359;DHT22;9815;52.334;20.890;2023-04-21T06:20:27;11.80;38.10
19359;DHT22;9815;52.334;20.890;2023-04-21T06:22:55;11.90;34.20
19359;DHT22;9815;52.334;20.890;2023-04-21T06:25:23;12.10;34.00
19359;DHT22;9815;52.334;20.890;2023-04-21T06:27:51;12.10;33.20
19359;DHT22;9815;52.334;20.890;2023-04-21T06:30:19;12.20;33.80
19359;DHT22;9815;52.334;20.890;2023-04-21T06:32:46;12.40;32.60
19359;DHT22;9815;52.334;20.890;2023-04-21T06:35:16;12.40;30.60
19359;DHT22;9815;52.334;20.890;2023-04-21T06:37:46;12.60;31.80
19359;DHT22;9815;52.334;20.890;2023-04-21T06:40:14;12.60;32.60
19359;DHT22;9815;52.334;20.890;2023-04-21T06:42:42;12.80;30.90
19359;DHT22;9815;52.334;20.890;2023-04-21T06:45:10;12.80;30.80
19359;DHT22;9815;52.334;20.890;2023-04-21T06:47:38;13.00;31.90
19359;DHT22;9815;52.334;20.890;2023-04-21T06:50:07;13.10;30.30
19359;DHT22;9815;52.334;20.890;2023-04-21T06:52:37;13.20;29.40
19359;DHT22;9815;52.334;20.890;2023-04-21T06:55:06;13.30;28.90
19359;DHT22;9815;52.334;20.890;2023-04-21T06:57:34;13.40;28.70
19359;DHT22;9815;52.334;20.890;2023-04-21T07:00:03;13.60;28.20
19359;DHT22;9815;52.334;20.890;2023-04-21T07:02:32;13.70;27.00
19359;DHT22;9815;52.334;20.890;2023-04-21T07:05:00;13.90;28.10
19359;DHT22;9815;52.334;20.890;2023-04-21T07:07:28;14.00;27.80
19359;DHT22;9815;52.334;20.890;2023-04-21T07:09:57;14.10;27.40
19359;DHT22;9815;52.334;20.890;2023-04-21T07:12:25;14.20;26.00
19359;DHT22;9815;52.334;20.890;2023-04-21T07:14:54;14.40;25.70
19359;DHT22;9815;52.334;20.890;2023-04-21T07:17:22;14.60;24.60
19359;DHT22;9815;52.334;20.890;2023-04-21T07:19:50;14.60;25.80
19359;DHT22;9815;52.334;20.890;2023-04-21T07:22:17;14.70;24.80
19359;DHT22;9815;52.334;20.890;2023-04-21T07:24:46;15.00;27.00
19359;DHT22;9815;52.334;20.890;2023-04-21T07:27:16;15.10;25.40
19359;DHT22;9815;52.334;20.890;2023-04-21T07:29:45;15.30;26.20
19359;DHT22;9815;52.334;20.890;2023-04-21T07:32:13;15.50;23.90
19359;DHT22;9815;52.334;20.890;2023-04-21T07:34:41;15.80;23.50
19359;DHT22;9815;52.334;20.890;2023-04-21T07:37:12;16.10;22.30
19359;DHT22;9815;52.334;20.890;2023-04-21T07:39:40;16.50;20.50
19359;DHT22;9815;52.334;20.890;2023-04-21T07:42:08;16.70;21.90
19359;DHT22;9815;52.334;20.890;2023-04-21T07:44:38;16.90;21.10
19359;DHT22;9815;52.334;20.890;2023-04-21T07:47:06;17.10;19.40
19359;DHT22;9815;52.334;20.890;2023-04-21T07:49:34;17.30;19.10
19359;DHT22;9815;52.334;20.890;2023-04-21T07:52:02;17.80;18.90
19359;DHT22;9815;52.334;20.890;2023-04-21T07:54:30;17.90;17.70
19359;DHT22;9815;52.334;20.890;2023-04-21T07:56:58;17.80;17.60
19359;DHT22;9815;52.334;20.890;2023-04-21T07:59:27;18.30;17.50
19359;DHT22;9815;52.334;20.890;2023-04-21T08:01:56;17.70;18.50
19359;DHT22;9815;52.334;20.890;2023-04-21T08:04:24;17.80;18.40
19359;DHT22;9815;52.334;20.890;2023-04-21T08:06:53;17.70;19.80
19359;DHT22;9815;52.334;20.890;2023-04-21T08:09:21;17.70;18.30
19359;DHT22;9815;52.334;20.890;2023-04-21T08:11:49;17.60;17.90
19359;DHT22;9815;52.334;20.890;2023-04-21T08:14:17;17.40;17.70
19359;DHT22;9815;52.334;20.890;2023-04-21T08:16:46;17.30;18.60
19359;DHT22;9815;52.334;20.890;2023-04-21T08:19:15;17.60;19.20
19359;DHT22;9815;52.334;20.890;2023-04-21T08:21:44;17.90;17.90
19359;DHT22;9815;52.334;20.890;2023-04-21T08:24:12;18.10;15.70
19359;DHT22;9815;52.334;20.890;2023-04-21T08:26:40;18.40;16.60
19359;DHT22;9815;52.334;20.890;2023-04-21T08:29:08;18.60;16.90
19359;DHT22;9815;52.334;20.890;2023-04-21T08:31:36;18.60;14.60
19359;DHT22;9815;52.334;20.890;2023-04-21T08:34:04;18.60;16.10
19359;DHT22;9815;52.334;20.890;2023-04-21T08:36:34;18.70;15.50
19359;DHT22;9815;52.334;20.890;2023-04-21T08:39:02;18.60;13.80
19359;DHT22;9815;52.334;20.890;2023-04-21T08:41:31;18.80;14.00
19359;DHT22;9815;52.334;20.890;2023-04-21T08:43:59;18.60;14.20
19359;DHT22;9815;52.334;20.890;2023-04-21T08:46:27;19.00;14.70
19359;DHT22;9815;52.334;20.890;2023-04-21T08:48:57;19.30;13.70
19359;DHT22;9815;52.334;20.890;2023-04-21T08:51:27;19.10;14.80
19359;DHT22;9815;52.334;20.890;2023-04-21T08:53:57;19.60;14.30
19359;DHT22;9815;52.334;20.890;2023-04-21T08:56:25;19.80;13.10
19359;DHT22;9815;52.334;20.890;2023-04-21T08:58:54;20.10;13.30
19359;DHT22;9815;52.334;20.890;2023-04-21T09:01:22;20.10;13.30
19359;DHT22;9815;52.334;20.890;2023-04-21T09:03:50;20.30;12.40
19359;DHT22;9815;52.334;20.890;2023-04-21T09:06:18;20.60;12.90
19359;DHT22;9815;52.334;20.890;2023-04-21T09:08:52;20.50;13.30
19359;DHT22;9815;52.334;20.890;2023-04-21T09:11:23;20.60;12.50
19359;DHT22;9815;52.334;20.890;2023-04-21T09:13:56;20.50;14.60
19359;DHT22;9815;52.334;20.890;2023-04-21T09:16:29;20.70;11.80
19359;DHT22;9815;52.334;20.890;2023-04-21T09:18:59;20.50;12.60
19359;DHT22;9815;52.334;20.890;2023-04-21T09:21:28;19.80;12.90
19359;DHT22;9815;52.334;20.890;2023-04-21T09:24:03;19.30;13.50
19359;DHT22;9815;52.334;20.890;2023-04-21T09:26:33;19.10;13.60
19359;DHT22;9815;52.334;20.890;2023-04-21T09:29:05;19.20;13.10
19359;DHT22;9815;52.334;20.890;2023-04-21T09:31:34;19.70;13.10
19359;DHT22;9815;52.334;20.890;2023-04-21T09:34:16;20.40;12.80
19359;DHT22;9815;52.334;20.890;2023-04-21T09:36:47;20.90;11.90
19359;DHT22;9815;52.334;20.890;2023-04-21T09:39:15;21.10;11.80
19359;DHT22;9815;52.334;20.890;2023-04-21T09:41:47;21.10;10.80
19359;DHT22;9815;52.334;20.890;2023-04-21T09:44:15;21.00;11.50
19359;DHT22;9815;52.334;20.890;2023-04-21T09:46:47;21.00;12.10
19359;DHT22;9815;52.334;20.890;2023-04-21T09:49:17;20.90;10.90
19359;DHT22;9815;52.334;20.890;2023-04-21T09:51:45;21.10;11.50
19359;DHT22;9815;52.334;20.890;2023-04-21T09:54:17;21.30;11.40
19359;DHT22;9815;52.334;20.890;2023-04-21T09:56:59;21.00;10.60
19359;DHT22;9815;52.334;20.890;2023-04-21T09:59:31;20.60;11.90
19359;DHT22;9815;52.334;20.890;2023-04-21T10:01:59;21.10;11.70
19359;DHT22;9815;52.334;20.890;2023-04-21T10:04:30;21.10;12.20
19359;DHT22;9815;52.334;20.890;2023-04-21T10:06:59;21.60;12.30
19359;DHT22;9815;52.334;20.890;2023-04-21T10:09:37;21.70;11.10
19359;DHT22;9815;52.334;20.890;2023-04-21T10:12:09;21.60;9.80
19359;DHT22;9815;52.334;20.890;2023-04-21T10:14:37;21.90;11.00
19359;DHT22;9815;52.334;20.890;2023-04-21T10:17:07;22.00;9.50
19359;DHT22;9815;52.334;20.890;2023-04-21T10:19:37;21.50;10.60
19359;DHT22;9815;52.334;20.890;2023-04-21T10:22:06;21.60;9.30
19359;DHT22;9815;52.334;20.890;2023-04-21T10:24:39;21.60;9.00
19359;DHT22;9815;52.334;20.890;2023-04-21T10:27:10;21.60;8.60
19359;DHT22;9815;52.334;20.890;2023-04-21T10:29:39;20.90;9.90
19359;DHT22;9815;52.334;20.890;2023-04-21T10:32:39;20.90;10.00
19359;DHT22;9815;52.334;20.890;2023-04-21T10:35:09;20.60;9.20
19359;DHT22;9815;52.334;20.890;2023-04-21T10:37:37;21.00;10.00
19359;DHT22;9815;52.334;20.890;2023-04-21T10:40:33;21.30;9.00
19359;DHT22;9815;52.334;20.890;2023-04-21T10:43:41;21.50;9.30
19359;DHT22;9815;52.334;20.890;2023-04-21T10:46:30;21.50;9.10
19359;DHT22;9815;52.334;20.890;2023-04-21T10:49:04;20.80;9.10
19359;DHT22;9815;52.334;20.890;2023-04-21T10:51:32;20.60;9.10
19359;DHT22;9815;52.334;20.890;2023-04-21T10:54:03;21.10;9.90
19359;DHT22;9815;52.334;20.890;2023-04-21T10:56:32;21.30;10.60
19359;DHT22;9815;52.334;20.890;2023-04-21T10:59:04;21.40;9.60
19359;DHT22;9815;52.334;20.890;2023-04-21T11:01:32;21.40;8.80
19359;DHT22;9815;52.334;20.890;2023-04-21T11:04:00;21.10;9.40
19359;DHT22;9815;52.334;20.890;2023-04-21T11:06:28;21.50;9.00
19359;DHT22;9815;52.334;20.890;2023-04-21T11:08:57;21.30;9.10
19359;DHT22;9815;52.334;20.890;2023-04-21T11:11:25;21.40;9.40
19359;DHT22;9815;52.334;20.890;2023-04-21T11:13:53;21.80;8.60
19359;DHT22;9815;52.334;20.890;2023-04-21T11:16:22;21.90;9.90
19359;DHT22;9815;52.334;20.890;2023-04-21T11:18:50;21.90;8.70
19359;DHT22;9815;52.334;20.890;2023-04-21T11:21:18;22.20;8.40
19359;DHT22;9815;52.334;20.890;2023-04-21T11:23:49;21.60;9.40
19359;DHT22;9815;52.334;20.890;2023-04-21T11:26:18;21.50;9.00
19359;DHT22;9815;52.334;20.890;2023-04-21T11:28:59;21.90;9.10
19359;DHT22;9815;52.334;20.890;2023-04-21T11:31:29;22.00;7.90
19359;DHT22;9815;52.334;20.890;2023-04-21T11:33:58;22.20;8.60
19359;DHT22;9815;52.334;20.890;2023-04-21T11:36:26;22.10;9.00
19359;DHT22;9815;52.334;20.890;2023-04-21T11:38:57;22.40;9.40
19359;DHT22;9815;52.334;20.890;2023-04-21T11:41:26;22.50;8.90
19359;DHT22;9815;52.334;20.890;2023-04-21T11:43:54;22.50;7.50
19359;DHT22;9815;52.334;20.890;2023-04-21T11:46:30;22.10;8.50
19359;DHT22;9815;52.334;20.890;2023-04-21T11:49:01;22.30;8.30
19359;DHT22;9815;52.334;20.890;2023-04-21T11:51:34;22.20;8.20
19359;DHT22;9815;52.334;20.890;2023-04-21T11:54:05;21.60;9.00
19359;DHT22;9815;52.334;20.890;2023-04-21T11:56:37;22.00;9.80
19359;DHT22;9815;52.334;20.890;2023-04-21T11:59:06;22.00;8.40
19359;DHT22;9815;52.334;20.890;2023-04-21T12:01:42;22.10;8.70
19359;DHT22;9815;52.334;20.890;2023-04-21T12:04:13;22.10;8.10
19359;DHT22;9815;52.334;20.890;2023-04-21T12:06:43;21.80;9.00
19359;DHT22;9815;52.334;20.890;2023-04-21T12:09:16;21.90;8.20
19359;DHT22;9815;52.334;20.890;2023-04-21T12:11:47;22.30;7.40
19359;DHT22;9815;52.334;20.890;2023-04-21T12:14:18;22.60;7.10
19359;DHT22;9815;52.334;20.890;2023-04-21T12:16:49;22.60;7.00
19359;DHT22;9815;52.334;20.890;2023-04-21T12:19:21;22.40;7.30
19359;DHT22;9815;52.334;20.890;2023-04-21T12:21:54;21.90;8.40
19359;DHT22;9815;52.334;20.890;2023-04-21T12:24:23;21.80;8.00
19359;DHT22;9815;52.334;20.890;2023-04-21T12:26:51;21.70;8.40
19359;DHT22;9815;52.334;20.890;2023-04-21T12:29:20;21.50;8.60
19359;DHT22;9815;52.334;20.890;2023-04-21T12:31:50;22.00;8.50
19359;DHT22;9815;52.334;20.890;2023-04-21T12:34:18;22.50;8.60
19359;DHT22;9815;52.334;20.890;2023-04-21T12:36:46;22.60;7.30
19359;DHT22;9815;52.334;20.890;2023-04-21T12:39:14;22.70;7.50
19359;DHT22;9815;52.334;20.890;2023-04-21T12:41:43;22.60;6.60
19359;DHT22;9815;52.334;20.890;2023-04-21T12:44:11;22.20;7.30
19359;DHT22;9815;52.334;20.890;2023-04-21T12:46:39;22.50;8.50
19359;DHT22;9815;52.334;20.890;2023-04-21T12:49:09;22.40;8.20
19359;DHT22;9815;52.334;20.890;2023-04-21T12:51:37;22.40;7.60
19359;DHT22;9815;52.334;20.890;2023-04-21T12:54:05;22.40;6.70
19359;DHT22;9815;52.334;20.890;2023-04-21T12:56:33;21.80;7.00
19359;DHT22;9815;52.334;20.890;2023-04-21T12:59:02;21.50;7.30
19359;DHT22;9815;52.334;20.890;2023-04-21T13:01:31;21.50;7.10
19359;DHT22;9815;52.334;20.890;2023-04-21T13:04:00;21.30;7.90
19359;DHT22;9815;52.334;20.890;2023-04-21T13:06:30;21.60;8.10
19359;DHT22;9815;52.334;20.890;2023-04-21T13:08:59;21.40;8.50
19359;DHT22;9815;52.334;20.890;2023-04-21T13:11:27;21.80;7.50
19359;DHT22;9815;52.334;20.890;2023-04-21T13:13:56;21.60;9.30
19359;DHT22;9815;52.334;20.890;2023-04-21T13:16:24;21.90;7.30
19359;DHT22;9815;52.334;20.890;2023-04-21T13:18:56;21.40;7.90
19359;DHT22;9815;52.334;20.890;2023-04-21T13:21:24;21.50;8.00
19359;DHT22;9815;52.334;20.890;2023-04-21T13:23:53;21.40;7.90
19359;DHT22;9815;52.334;20.890;2023-04-21T13:26:22;21.50;8.20
19359;DHT22;9815;52.334;20.890;2023-04-21T13:28:50;21.40;8.10
19359;DHT22;9815;52.334;20.890;2023-04-21T13:31:18;21.40;9.10
19359;DHT22;9815;52.334;20.890;2023-04-21T13:33:46;21.30;8.80
19359;DHT22;9815;52.334;20.890;2023-04-21T13:36:16;21.30;8.20
19359;DHT22;9815;52.334;20.890;2023-04-21T13:38:45;21.80;7.30
19359;DHT22;9815;52.334;20.890;2023-04-21T13:41:15;21.70;8.10
19359;DHT22;9815;52.334;20.890;2023-04-21T13:43:43;21.80;8.10
19359;DHT22;9815;52.334;20.890;2023-04-21T13:46:12;21.60;7.80
19359;DHT22;9815;52.334;20.890;2023-04-21T13:48:40;21.60;8.80
19359;DHT22;9815;52.334;20.890;2023-04-21T13:51:09;21.30;8.30
19359;DHT22;9815;52.334;20.890;2023-04-21T13:53:37;21.40;8.00
19359;DHT22;9815;52.334;20.890;2023-04-21T13:56:05;21.50;9.00
19359;DHT22;9815;52.334;20.890;2023-04-21T13:58:35;21.90;9.70
19359;DHT22;9815;52.334;20.890;2023-04-21T14:01:03;21.40;8.30
19359;DHT22;9815;52.334;20.890;2023-04-21T14:03:31;21.70;9.00
19359;DHT22;9815;52.334;20.890;2023-04-21T14:06:00;22.00;7.50
19359;DHT22;9815;52.334;20.890;2023-04-21T14:08:28;21.60;7.50
19359;DHT22;9815;52.334;20.890;2023-04-21T14:10:56;21.40;8.90
19359;DHT22;9815;52.334;20.890;2023-04-21T14:13:25;21.10;8.40
19359;DHT22;9815;52.334;20.890;2023-04-21T14:16:07;21.20;8.40
19359;DHT22;9815;52.334;20.890;2023-04-21T14:18:35;20.90;7.80
19359;DHT22;9815;52.334;20.890;2023-04-21T14:21:10;21.00;8.30
19359;DHT22;9815;52.334;20.890;2023-04-21T14:23:38;21.00;8.10
19359;DHT22;9815;52.334;20.890;2023-04-21T14:26:06;21.10;8.60
19359;DHT22;9815;52.334;20.890;2023-04-21T14:28:34;21.00;8.20
19359;DHT22;9815;52.334;20.890;2023-04-21T14:31:03;20.90;8.50
19359;DHT22;9815;52.334;20.890;2023-04-21T14:33:33;21.00;8.60
19359;DHT22;9815;52.334;20.890;2023-04-21T14:36:01;21.30;9.00
19359;DHT22;9815;52.334;20.890;2023-04-21T14:38:29;21.50;9.40
19359;DHT22;9815;52.334;20.890;2023-04-21T14:40:58;21.60;8.30
19359;DHT22;9815;52.334;20.890;2023-04-21T14:43:26;21.40;7.50
19359;DHT22;9815;52.334;20.890;2023-04-21T14:45:54;21.10;8.60
19359;DHT22;9815;52.334;20.890;2023-04-21T14:48:23;21.20;8.40
19359;DHT22;9815;52.334;20.890;2023-04-21T14:50:53;21.30;8.90
19359;DHT22;9815;52.334;20.890;2023-04-21T14:53:23;21.50;8.80
19359;DHT22;9815;52.334;20.890;2023-04-21T14:55:52;21.30;8.20
19359;DHT22;9815;52.334;20.890;2023-04-21T14:58:20;21.30;7.80
19359;DHT22;9815;52.334;20.890;2023-04-21T15:00:50;20.90;8.30
19359;DHT22;9815;52.334;20.890;2023-04-21T15:03:19;21.00;8.60
19359;DHT22;9815;52.334;20.890;2023-04-21T15:05:47;20.80;8.40
19359;DHT22;9815;52.334;20.890;2023-04-21T15:08:17;20.70;8.00
19359;DHT22;9815;52.334;20.890;2023-04-21T15:10:46;20.60;8.70
19359;DHT22;9815;52.334;20.890;2023-04-21T15:13:14;20.50;9.00
19359;DHT22;9815;52.334;20.890;2023-04-21T15:15:43;20.20;9.50
19359;DHT22;9815;52.334;20.890;2023-04-21T15:18:11;20.20;9.80
19359;DHT22;9815;52.334;20.890;2023-04-21T15:20:40;20.20;9.50
19359;DHT22;9815;52.334;20.890;2023-04-21T15:23:12;20.40;9.50
19359;DHT22;9815;52.334;20.890;2023-04-21T15:25:42;20.50;10.20
19359;DHT22;9815;52.334;20.890;2023-04-21T15:28:10;20.60;10.40
19359;DHT22;9815;52.334;20.890;2023-04-21T15:30:38;20.60;10.30
19359;DHT22;9815;52.334;20.890;2023-04-21T15:33:07;20.20;10.30
19359;DHT22;9815;52.334;20.890;2023-04-21T15:35:37;19.80;10.40
19359;DHT22;9815;52.334;20.890;2023-04-21T15:38:05;19.80;10.40
19359;DHT22;9815;52.334;20.890;2023-04-21T15:40:34;19.70;10.90
19359;DHT22;9815;52.334;20.890;2023-04-21T15:43:16;19.60;11.20
19359;DHT22;9815;52.334;20.890;2023-04-21T15:45:45;19.70;11.40
19359;DHT22;9815;52.334;20.890;2023-04-21T15:48:13;19.40;10.20
19359;DHT22;9815;52.334;20.890;2023-04-21T15:50:43;19.30;11.00
19359;DHT22;9815;52.334;20.890;2023-04-21T15:53:11;19.30;10.20